Terminal Aerodrome Forecast
Issued by NWS

Home | Current Version | Previous Version | Text Only | Print | Product List | Glossary On
Versions: 1 2 3 4 5 6 7 8 9 10 11 12 13 14
000
FTUS45 KTFX 280500 AAA
TAFGTF
TAF AMD
KGTF 280555Z 2806/2906 21012KT 3SM -SN BR OVC025
     FM280700 21012KT P6SM OVC040
     FM281200 VRB06KT 4SM -SN BR OVC020
     FM281400 36012KT 1/2SM -SN FZFG OVC005
     FM282300 36014KT 1SM -SN BR OVC015
     FM290400 36010KT 2SM -SN BR OVC015=

USA.gov is the U.S. government's official web portal to all federal, state and local government web resources and services.